Fairbury, Illinois
Current Conditions -  °F | °C
As of 10:55 AM on Thursday 27 Nov 2014 (Local Time) from KPNT Reporting Station
Light Snow Light Snow  
Wind Chill: -8°   Ceiling: 2100
Heat Index: -2°   Visibility: 7mi
Dew Point: -5°   Wind: 15mph
Humidity: 80%   Direction: 300°WNW
Pressure: 30.39"   Gusts: 18mph
Location:  40.75°N, 88.51°W
Report Text: KPNT 271655Z AUTO 30013G16KT 7SM -SN SCT016 BKN021 OVC037 M02/M05 A3039 RMK AO2 T10171048
Loading
Personal Weather Stations






























Interactive Weather Map New forecast layout! Learn more

10-Day Weather Forecast

Advertisements
Track Severe Weather on mobile